Time;durP1;ratioP1;P1;durP2;ratioP2;P2;SDS_P1;SDS_P2;PMS_P1;PMS_P2;Temp;Humidity;BMP_temperature;BMP_pressure;BME280_temperature;BME280_humidity;BME280_pressure;Samples;Min_cycle;Max_cycle;Signal;HPM_P1;HPM_P2
2022/05/08 00:00:41;;;;;;;2.87;1.70;;;;;;;;;;2097676;28;20524;-47
2022/05/08 00:01:42;;;;;;;2.30;1.60;;;;;;;;;;2097636;28;20048;-48
2022/05/08 00:02:44;;;;;;;4.68;1.90;;;;;;;;;;2097635;28;20418;-48
2022/05/08 00:03:45;;;;;;;2.97;1.52;;;;;;;;;;2098850;28;20044;-47
2022/05/08 00:04:50;;;;;;;3.33;1.80;;;;;;;;;;2105959;28;20568;-47
2022/05/08 00:05:51;;;;;;;2.92;1.73;;;;;;;;;;2105888;28;20089;-47
2022/05/08 00:06:52;;;;;;;2.42;1.75;;;;;;;;;;2105970;28;20614;-50
2022/05/08 00:07:53;;;;;;;3.67;1.87;;;;;;;;;;2105957;28;20137;-47
2022/05/08 00:08:54;;;;;;;;;;;;;;;;;;2106315;28;20482;-47
2022/05/08 00:11:15;;;;;;;3.42;1.30;;;;;;;;;;2105977;28;20119;-47
2022/05/08 00:12:16;;;;;;;2.95;1.70;;;;;;;;;;2106060;28;20074;-48
2022/05/08 00:13:18;;;;;;;2.42;1.67;;;;;;;;;;2105822;28;20185;-47
2022/05/08 00:14:19;;;;;;;5.18;1.63;;;;;;;;;;2106081;28;20127;-48
2022/05/08 00:15:20;;;;;;;3.92;1.90;;;;;;;;;;2105889;28;20076;-47
2022/05/08 00:16:21;;;;;;;4.67;2.10;;;;;;;;;;2105900;28;20058;-48
2022/05/08 00:17:22;;;;;;;3.30;1.77;;;;;;;;;;2105935;28;20044;-47
2022/05/08 00:18:23;;;;;;;3.57;2.10;;;;;;;;;;2104854;28;20044;-47
2022/05/08 00:19:24;;;;;;;2.47;1.38;;;;;;;;;;2097425;28;20368;-48
2022/05/08 00:20:25;;;;;;;3.47;2.00;;;;;;;;;;2097689;28;20127;-48
2022/05/08 00:21:27;;;;;;;3.67;1.90;;;;;;;;;;2097496;28;20151;-47
2022/05/08 00:22:27;;;;;;;4.20;1.77;;;;;;;;;;2097645;28;20093;-48
2022/05/08 00:23:35;;;;;;;5.32;1.55;;;;;;;;;;2097536;28;20045;-48
2022/05/08 00:24:36;;;;;;;;;;;;;;;;;;2097910;28;20513;-48
2022/05/08 00:25:37;;;;;;;3.17;1.40;;;;;;;;;;2097553;28;19920;-47
2022/05/08 00:26:38;;;;;;;3.17;1.75;;;;;;;;;;2097500;28;20086;-47
2022/05/08 00:27:39;;;;;;;2.58;1.67;;;;;;;;;;2097396;28;20568;-48
2022/05/08 00:28:41;;;;;;;2.42;1.77;;;;;;;;;;2097355;28;20397;-48
2022/05/08 00:29:41;;;;;;;3.05;1.70;;;;;;;;;;2097457;28;20059;-47
2022/05/08 00:30:43;;;;;;;4.23;2.20;;;;;;;;;;2097539;28;20052;-49
2022/05/08 00:31:44;;;;;;;2.80;1.60;;;;;;;;;;2097537;28;20135;-47
2022/05/08 00:32:45;;;;;;;2.77;1.80;;;;;;;;;;2097570;28;20482;-48
2022/05/08 00:33:46;;;;;;;3.30;2.03;;;;;;;;;;2097470;28;20128;-48
2022/05/08 00:34:47;;;;;;;4.28;1.95;;;;;;;;;;2097564;28;20048;-48
2022/05/08 00:35:48;;;;;;;4.23;2.03;;;;;;;;;;2097487;28;20581;-47
2022/05/08 00:36:49;;;;;;;4.93;2.08;;;;;;;;;;2097585;28;20041;-47
2022/05/08 00:37:51;;;;;;;5.00;1.80;;;;;;;;;;2097405;28;20049;-47
2022/05/08 00:38:55;;;;;;;3.38;1.50;;;;;;;;;;2097424;28;20405;-47
2022/05/08 00:39:56;;;;;;;5.30;1.70;;;;;;;;;;2097397;28;20158;-47
2022/05/08 00:40:57;;;;;;;;;;;;;;;;;;2097943;28;20048;-48
2022/05/08 00:41:59;;;;;;;9.02;2.45;;;;;;;;;;2097339;28;20432;-48
2022/05/08 00:43:14;;;;;;;2.20;1.55;;;;;;;;;;2097424;28;20128;-48
2022/05/08 00:44:16;;;;;;;3.95;1.60;;;;;;;;;;2096424;28;20048;-48
2022/05/08 00:45:16;;;;;;;2.10;1.35;;;;;;;;;;2097331;28;20549;-47
2022/05/08 00:46:18;;;;;;;3.53;1.67;;;;;;;;;;2097427;28;20048;-47
2022/05/08 00:47:19;;;;;;;2.95;1.70;;;;;;;;;;2097346;28;20119;-50
2022/05/08 00:48:20;;;;;;;3.60;1.88;;;;;;;;;;2097483;28;20513;-47
2022/05/08 00:49:21;;;;;;;2.33;1.70;;;;;;;;;;2097302;28;20045;-49
2022/05/08 00:50:22;;;;;;;2.43;1.50;;;;;;;;;;2097502;28;20102;-49
2022/05/08 00:51:24;;;;;;;4.20;1.88;;;;;;;;;;2097297;28;20409;-47
2022/05/08 00:52:27;;;;;;;2.60;1.75;;;;;;;;;;2097410;28;20124;-47
2022/05/08 00:53:30;;;;;;;5.15;1.80;;;;;;;;;;2097343;28;20486;-48
2022/05/08 00:54:32;;;;;;;4.80;1.75;;;;;;;;;;2097461;28;20131;-49
2022/05/08 00:55:33;;;;;;;2.78;1.48;;;;;;;;;;2097315;28;20076;-48
2022/05/08 00:56:35;;;;;;;3.60;1.90;;;;;;;;;;2097425;28;20060;-47
2022/05/08 00:57:36;;;;;;;6.63;2.15;;;;;;;;;;2097295;28;20131;-50
2022/05/08 00:58:38;;;;;;;4.45;2.00;;;;;;;;;;2097195;28;20051;-48
2022/05/08 00:59:39;;;;;;;;;;;;;;;;;;2097669;28;20667;-50
2022/05/08 01:00:40;;;;;;;3.63;1.95;;;;;;;;;;2104291;28;19965;-60
2022/05/08 01:01:41;;;;;;;3.38;2.13;;;;;;;;;;2105914;28;20101;-47
2022/05/08 01:02:43;;;;;;;2.58;1.35;;;;;;;;;;2105599;28;20059;-47
2022/05/08 01:03:44;;;;;;;2.92;1.42;;;;;;;;;;2105593;28;20052;-50
2022/05/08 01:04:45;;;;;;;4.68;1.73;;;;;;;;;;2105558;28;20048;-49
2022/05/08 01:05:48;;;;;;;2.92;1.77;;;;;;;;;;2105798;28;20048;-50
2022/05/08 01:06:49;;;;;;;3.38;1.55;;;;;;;;;;2105599;28;20123;-49
2022/05/08 01:07:50;;;;;;;4.47;1.63;;;;;;;;;;2105570;28;20052;-48
2022/05/08 01:08:52;;;;;;;3.50;2.28;;;;;;;;;;2105522;28;20135;-47
2022/05/08 01:09:54;;;;;;;4.15;1.65;;;;;;;;;;2105735;28;20044;-49
2022/05/08 01:10:55;;;;;;;4.72;1.90;;;;;;;;;;2105545;28;20424;-48
2022/05/08 01:11:56;;;;;;;3.15;1.67;;;;;;;;;;2105615;28;20472;-49
2022/05/08 01:12:57;;;;;;;3.27;2.10;;;;;;;;;;2105751;28;20044;-47
2022/05/08 01:13:58;;;;;;;4.40;1.75;;;;;;;;;;2105466;28;20048;-48
2022/05/08 01:15:13;;;;;;;4.88;1.77;;;;;;;;;;2105726;28;20177;-48
2022/05/08 01:16:15;;;;;;;5.68;2.15;;;;;;;;;;2105433;28;20543;-47
2022/05/08 01:17:16;;;;;;;2.63;1.48;;;;;;;;;;2105661;28;20044;-48
2022/05/08 01:18:18;;;;;;;7.95;1.35;;;;;;;;;;2105538;28;20070;-48
2022/05/08 01:19:19;;;;;;;3.97;1.88;;;;;;;;;;2096981;28;20052;-48
2022/05/08 01:20:20;;;;;;;3.60;2.03;;;;;;;;;;2097233;28;20192;-49
2022/05/08 01:21:23;;;;;;;3.78;1.67;;;;;;;;;;2097316;28;20105;-48
2022/05/08 01:22:25;;;;;;;3.00;1.63;;;;;;;;;;2097209;28;20066;-48
2022/05/08 01:23:26;;;;;;;2.80;1.63;;;;;;;;;;2097259;28;20054;-48
2022/05/08 01:24:27;;;;;;;2.60;1.80;;;;;;;;;;2097417;28;20049;-48
2022/05/08 01:25:28;;;;;;;2.58;1.60;;;;;;;;;;2097164;28;20075;-47
2022/05/08 01:26:29;;;;;;;2.72;1.70;;;;;;;;;;2097323;28;20136;-47
2022/05/08 01:27:30;;;;;;;2.45;1.60;;;;;;;;;;2097069;28;20048;-47
2022/05/08 01:28:31;;;;;;;3.30;1.77;;;;;;;;;;2096985;28;20451;-48
2022/05/08 01:29:32;;;;;;;4.80;1.67;;;;;;;;;;2097133;28;20097;-47
2022/05/08 01:30:33;;;;;;;3.47;1.90;;;;;;;;;;2098099;28;20126;-48
2022/05/08 01:31:34;;;;;;;4.40;1.65;;;;;;;;;;2098591;28;20451;-48
2022/05/08 01:32:36;;;;;;;3.72;2.13;;;;;;;;;;2098766;28;20048;-50
2022/05/08 01:33:37;;;;;;;3.10;1.67;;;;;;;;;;2098685;28;20048;-49
2022/05/08 01:34:38;;;;;;;;;;;;;;;;;;2099099;28;20049;-47
2022/05/08 01:35:40;;;;;;;4.47;1.60;;;;;;;;;;2098624;28;20400;-49
2022/05/08 01:36:41;;;;;;;3.72;1.83;;;;;;;;;;2098603;28;20479;-49
2022/05/08 01:37:43;;;;;;;3.60;2.00;;;;;;;;;;2098580;28;20045;-48
2022/05/08 01:38:44;;;;;;;3.50;2.00;;;;;;;;;;2098483;28;20059;-49
2022/05/08 01:39:45;;;;;;;4.17;1.87;;;;;;;;;;2098511;28;20072;-48
2022/05/08 01:40:46;;;;;;;4.57;1.95;;;;;;;;;;2098596;28;20124;-51
2022/05/08 01:41:47;;;;;;;2.97;1.50;;;;;;;;;;2098483;28;20462;-49
2022/05/08 01:42:55;;;;;;;4.20;1.60;;;;;;;;;;2098599;28;20417;-48
2022/05/08 01:43:55;;;;;;;2.92;1.70;;;;;;;;;;2098424;28;20048;-48
2022/05/08 01:44:57;;;;;;;2.50;1.77;;;;;;;;;;2098630;28;20052;-49
2022/05/08 01:45:58;;;;;;;3.20;1.65;;;;;;;;;;2098642;28;20045;-49
2022/05/08 01:48:23;;;;;;;4.25;1.60;;;;;;;;;;2097896;28;20135;-47
2022/05/08 01:49:24;;;;;;;3.97;1.88;;;;;;;;;;2098470;28;20131;-48
2022/05/08 01:50:25;;;;;;;3.40;1.50;;;;;;;;;;2098582;28;20504;-48
2022/05/08 01:51:27;;;;;;;3.30;1.80;;;;;;;;;;2098634;28;20448;-48
2022/05/08 01:52:27;;;;;;;3.58;1.80;;;;;;;;;;2098626;28;20155;-47
2022/05/08 01:53:32;;;;;;;2.60;1.70;;;;;;;;;;2098540;28;20072;-49
2022/05/08 01:54:32;;;;;;;3.42;1.70;;;;;;;;;;2098488;28;20044;-47
2022/05/08 01:55:34;;;;;;;2.93;1.70;;;;;;;;;;2098586;28;20052;-47
2022/05/08 01:56:35;;;;;;;3.30;1.60;;;;;;;;;;2102581;28;20138;-47
2022/05/08 01:57:36;;;;;;;4.07;2.00;;;;;;;;;;2106965;28;20051;-46
2022/05/08 01:58:38;;;;;;;3.67;1.52;;;;;;;;;;2106757;28;20178;-47
2022/05/08 01:59:39;;;;;;;2.35;1.70;;;;;;;;;;2106981;28;20048;-46
2022/05/08 02:00:40;;;;;;;2.33;1.33;;;;;;;;;;2106722;28;20048;-48
2022/05/08 02:01:41;;;;;;;2.85;1.80;;;;;;;;;;2106801;28;20598;-47
2022/05/08 02:02:44;;;;;;;3.45;2.15;;;;;;;;;;2106727;28;20150;-48
2022/05/08 02:03:45;;;;;;;2.92;1.70;;;;;;;;;;2106806;28;20046;-47
2022/05/08 02:04:46;;;;;;;2.95;1.60;;;;;;;;;;2106985;28;20075;-59
2022/05/08 02:05:48;;;;;;;2.47;1.45;;;;;;;;;;2106668;28;20088;-59
2022/05/08 02:06:49;;;;;;;3.40;1.90;;;;;;;;;;2106674;28;20127;-59
2022/05/08 02:07:50;;;;;;;4.75;1.77;;;;;;;;;;2106608;28;20135;-59
2022/05/08 02:08:52;;;;;;;2.90;1.73;;;;;;;;;;2106754;28;20181;-59
2022/05/08 02:09:53;;;;;;;3.50;1.70;;;;;;;;;;2106723;28;20048;-59
2022/05/08 02:10:54;;;;;;;5.30;2.00;;;;;;;;;;2107052;28;20052;-59
2022/05/08 02:11:55;;;;;;;4.55;1.60;;;;;;;;;;2106795;28;20060;-59
2022/05/08 02:12:56;;;;;;;3.80;1.83;;;;;;;;;;2106914;28;20473;-59
2022/05/08 02:13:58;;;;;;;2.13;1.58;;;;;;;;;;2106874;28;20518;-59
2022/05/08 02:14:59;;;;;;;4.45;2.17;;;;;;;;;;2106667;28;20135;-59
2022/05/08 02:16:01;;;;;;;3.50;1.93;;;;;;;;;;2106669;28;20078;-59
2022/05/08 02:17:03;;;;;;;4.13;1.52;;;;;;;;;;2106636;28;20760;-59
2022/05/08 02:18:05;;;;;;;2.10;1.65;;;;;;;;;;2106643;28;20576;-59
2022/05/08 02:19:06;;;;;;;2.65;1.40;;;;;;;;;;2099947;28;20565;-59
2022/05/08 02:20:08;;;;;;;4.60;1.67;;;;;;;;;;2098376;28;20075;-58
2022/05/08 02:21:09;;;;;;;;;;;;;;;;;;2098709;28;20123;-59
2022/05/08 02:22:10;;;;;;;3.92;1.80;;;;;;;;;;2098581;28;20393;-58
2022/05/08 02:23:11;;;;;;;5.83;1.90;;;;;;;;;;2098313;28;20109;-59
2022/05/08 02:24:13;;;;;;;3.80;2.03;;;;;;;;;;2098356;28;20267;-58
2022/05/08 02:25:14;;;;;;;4.47;1.67;;;;;;;;;;2098193;28;20393;-59
2022/05/08 02:26:15;;;;;;;3.13;1.80;;;;;;;;;;2098599;28;20047;-58
2022/05/08 02:27:16;;;;;;;6.35;1.80;;;;;;;;;;2098266;28;20523;-58
2022/05/08 02:28:17;;;;;;;3.15;2.00;;;;;;;;;;2098123;28;20223;-59
2022/05/08 02:29:18;;;;;;;3.58;1.80;;;;;;;;;;2098468;28;20202;-58
2022/05/08 02:30:20;;;;;;;6.85;1.67;;;;;;;;;;2098212;28;20628;-58
2022/05/08 02:31:21;;;;;;;4.93;2.13;;;;;;;;;;2098201;28;20055;-58
2022/05/08 02:32:22;;;;;;;4.00;1.83;;;;;;;;;;2098279;28;20079;-58
2022/05/08 02:33:24;;;;;;;3.88;1.95;;;;;;;;;;2098199;28;20143;-59
2022/05/08 02:34:25;;;;;;;4.35;2.05;;;;;;;;;;2098261;28;20049;-59
2022/05/08 02:35:26;;;;;;;4.20;1.97;;;;;;;;;;2098155;28;20051;-58
2022/05/08 02:36:27;;;;;;;3.22;2.00;;;;;;;;;;2098089;28;20197;-59
2022/05/08 02:37:28;;;;;;;3.23;1.90;;;;;;;;;;2098316;28;20068;-59
2022/05/08 02:38:29;;;;;;;2.13;1.50;;;;;;;;;;2098142;28;20372;-59
2022/05/08 02:39:31;;;;;;;3.00;1.88;;;;;;;;;;2098358;28;20048;-47
2022/05/08 02:40:32;;;;;;;4.80;2.20;;;;;;;;;;2098126;28;20383;-46
2022/05/08 02:41:33;;;;;;;4.15;1.67;;;;;;;;;;2097968;28;20119;-49
2022/05/08 02:42:35;;;;;;;3.53;1.70;;;;;;;;;;2098268;28;20127;-47
2022/05/08 02:43:36;;;;;;;6.38;2.20;;;;;;;;;;2097999;28;20086;-47
2022/05/08 02:44:37;;;;;;;2.07;1.43;;;;;;;;;;2098258;28;20048;-49
2022/05/08 02:45:38;;;;;;;3.13;1.77;;;;;;;;;;2098348;28;20090;-58
2022/05/08 02:46:39;;;;;;;2.95;1.73;;;;;;;;;;2098234;28;20113;-58
2022/05/08 02:47:40;;;;;;;2.85;1.60;;;;;;;;;;2098117;28;20044;-58
2022/05/08 02:48:42;;;;;;;4.88;1.98;;;;;;;;;;2098164;28;20159;-58
2022/05/08 02:49:43;;;;;;;4.43;1.85;;;;;;;;;;2098042;28;20485;-59
2022/05/08 02:50:44;;;;;;;5.90;1.90;;;;;;;;;;2098086;28;20220;-58
2022/05/08 02:51:45;;;;;;;4.30;1.75;;;;;;;;;;2098186;28;20132;-58
2022/05/08 02:52:47;;;;;;;3.93;1.83;;;;;;;;;;2097810;28;20131;-58
2022/05/08 02:53:48;;;;;;;2.85;1.77;;;;;;;;;;2098112;28;20285;-59
2022/05/08 02:54:50;;;;;;;3.23;1.60;;;;;;;;;;2098044;28;20498;-58
2022/05/08 02:58:43;;;;;;;8.95;1.90;;;;;;;;;;2080466;28;20049;-58
2022/05/08 02:59:45;;;;;;;3.77;1.83;;;;;;;;;;2080563;28;20054;-59
2022/05/08 03:00:46;;;;;;;4.40;1.98;;;;;;;;;;2080548;28;20049;-59
2022/05/08 03:01:47;;;;;;;3.00;1.77;;;;;;;;;;2080441;28;20132;-59
2022/05/08 03:02:48;;;;;;;2.95;1.95;;;;;;;;;;2080521;28;20057;-59
2022/05/08 03:03:50;;;;;;;5.50;1.85;;;;;;;;;;2080401;28;20503;-58
2022/05/08 03:04:51;;;;;;;2.72;1.90;;;;;;;;;;2095759;28;20045;-58
2022/05/08 03:05:52;;;;;;;3.60;1.77;;;;;;;;;;2097996;28;20044;-59
2022/05/08 03:06:53;;;;;;;3.22;1.80;;;;;;;;;;2097940;28;20052;-59
2022/05/08 03:07:54;;;;;;;6.73;2.17;;;;;;;;;;2097913;28;20136;-58
2022/05/08 03:08:56;;;;;;;4.38;1.80;;;;;;;;;;2098020;28;20178;-59
2022/05/08 03:09:57;;;;;;;4.13;1.85;;;;;;;;;;2098102;28;20052;-58
2022/05/08 03:12:18;;;;;;;3.42;1.70;;;;;;;;;;2098049;28;19925;-59
2022/05/08 03:13:20;;;;;;;3.97;1.90;;;;;;;;;;2098301;28;20120;-59
2022/05/08 03:14:21;;;;;;;4.10;1.70;;;;;;;;;;2097982;28;20140;-59
2022/05/08 03:15:22;;;;;;;3.88;2.10;;;;;;;;;;2097927;28;20051;-60
2022/05/08 03:16:23;;;;;;;3.50;1.87;;;;;;;;;;2098068;28;20131;-60
2022/05/08 03:17:24;;;;;;;2.75;1.60;;;;;;;;;;2097966;28;20132;-60
2022/05/08 03:18:26;;;;;;;6.47;2.37;;;;;;;;;;2097761;28;20044;-60
2022/05/08 03:19:27;;;;;;;4.50;2.17;;;;;;;;;;2097915;28;20372;-60
2022/05/08 03:20:29;;;;;;;;;;;;;;;;;;2098475;28;20052;-60
2022/05/08 03:21:29;;;;;;;5.32;2.63;;;;;;;;;;2097906;28;19921;-60
2022/05/08 03:22:31;;;;;;;3.67;2.00;;;;;;;;;;2097938;28;20048;-60
2022/05/08 03:23:33;;;;;;;2.97;1.80;;;;;;;;;;2097945;28;20053;-61
2022/05/08 03:24:35;;;;;;;4.28;1.98;;;;;;;;;;2097812;28;20067;-60
2022/05/08 03:25:36;;;;;;;6.65;2.13;;;;;;;;;;2097968;28;20132;-60
2022/05/08 03:26:38;;;;;;;2.95;1.90;;;;;;;;;;2097878;28;20128;-60
2022/05/08 03:27:38;;;;;;;5.32;2.25;;;;;;;;;;2097976;28;20147;-60
2022/05/08 03:28:40;;;;;;;4.18;1.85;;;;;;;;;;2097781;28;20048;-60
2022/05/08 03:29:42;;;;;;;2.80;1.80;;;;;;;;;;2097993;28;20178;-61
2022/05/08 03:30:43;;;;;;;;;;;;;;;;;;2098270;28;20061;-60
2022/05/08 03:31:44;;;;;;;4.03;2.03;;;;;;;;;;2097942;28;19924;-60
2022/05/08 03:32:45;;;;;;;3.60;1.73;;;;;;;;;;2097835;28;20417;-59
2022/05/08 03:33:46;;;;;;;5.50;1.90;;;;;;;;;;2097741;28;20072;-59
2022/05/08 03:34:47;;;;;;;4.22;2.38;;;;;;;;;;2097757;28;20131;-59
2022/05/08 03:35:48;;;;;;;4.53;1.70;;;;;;;;;;2098002;28;20048;-59
2022/05/08 03:36:49;;;;;;;5.43;2.08;;;;;;;;;;2098161;28;20135;-49
2022/05/08 03:37:50;;;;;;;3.80;2.08;;;;;;;;;;2097839;28;20048;-50
2022/05/08 03:38:51;;;;;;;4.73;2.17;;;;;;;;;;2097844;28;20392;-50
2022/05/08 03:39:52;;;;;;;3.20;2.05;;;;;;;;;;2097842;28;20127;-50
2022/05/08 03:40:54;;;;;;;4.00;1.90;;;;;;;;;;2097891;28;20533;-49
2022/05/08 03:41:56;;;;;;;4.13;1.85;;;;;;;;;;2097799;28;20055;-48
2022/05/08 03:42:56;;;;;;;4.35;2.00;;;;;;;;;;2097746;28;20465;-48
2022/05/08 03:43:58;;;;;;;3.50;2.42;;;;;;;;;;2097902;28;20067;-59
2022/05/08 03:44:59;;;;;;;3.75;1.90;;;;;;;;;;2097746;28;20623;-59
2022/05/08 03:46:00;;;;;;;4.05;1.83;;;;;;;;;;2097784;28;20052;-60
2022/05/08 03:47:01;;;;;;;3.72;2.00;;;;;;;;;;2097688;28;20040;-59
2022/05/08 03:48:02;;;;;;;5.20;2.50;;;;;;;;;;2097660;28;20052;-60
2022/05/08 03:49:03;;;;;;;5.20;2.03;;;;;;;;;;2101446;28;20141;-60
2022/05/08 03:50:06;;;;;;;3.20;1.92;;;;;;;;;;2106217;28;20055;-59
2022/05/08 03:51:08;;;;;;;3.08;1.77;;;;;;;;;;2106089;28;20152;-59
2022/05/08 03:52:09;;;;;;;3.40;2.00;;;;;;;;;;2106269;28;20263;-59
2022/05/08 03:53:10;;;;;;;3.13;1.95;;;;;;;;;;2105039;28;20448;-59
2022/05/08 03:54:12;;;;;;;3.55;2.00;;;;;;;;;;2106075;28;20181;-59
2022/05/08 03:55:15;;;;;;;5.25;2.40;;;;;;;;;;2106094;28;20101;-59
2022/05/08 03:56:17;;;;;;;3.70;1.90;;;;;;;;;;2105990;28;20040;-58
2022/05/08 03:57:18;;;;;;;5.43;2.00;;;;;;;;;;2106117;28;20074;-59
2022/05/08 03:58:19;;;;;;;3.93;1.73;;;;;;;;;;2106001;28;20040;-59
2022/05/08 03:59:20;;;;;;;4.53;2.10;;;;;;;;;;2106114;28;20044;-59
2022/05/08 04:00:21;;;;;;;2.80;1.83;;;;;;;;;;2105995;28;20101;-59
2022/05/08 04:01:22;;;;;;;5.75;2.22;;;;;;;;;;2106078;28;20530;-59
2022/05/08 04:02:24;;;;;;;4.87;2.30;;;;;;;;;;2106169;28;20131;-51
2022/05/08 04:03:25;;;;;;;4.18;2.25;;;;;;;;;;2106126;28;20082;-48
2022/05/08 04:04:26;;;;;;;4.15;2.38;;;;;;;;;;2105926;28;20044;-50
2022/05/08 04:05:27;;;;;;;5.05;2.08;;;;;;;;;;2106090;28;20052;-48
2022/05/08 04:06:30;;;;;;;4.40;2.05;;;;;;;;;;2106360;28;20090;-47
2022/05/08 04:07:30;;;;;;;4.03;2.08;;;;;;;;;;2106183;28;20055;-48
2022/05/08 04:08:32;;;;;;;3.90;2.37;;;;;;;;;;2105967;28;20473;-50
2022/05/08 04:09:33;;;;;;;;;;;;;;;;;;2106387;28;20046;-50
2022/05/08 04:10:34;;;;;;;4.35;2.00;;;;;;;;;;2105903;28;19924;-47
2022/05/08 04:11:36;;;;;;;5.33;2.57;;;;;;;;;;2105899;28;20085;-48
2022/05/08 04:12:37;;;;;;;;;;;;;;;;;;2106514;28;20127;-48
2022/05/08 04:13:38;;;;;;;4.45;2.13;;;;;;;;;;2105887;28;19927;-47
2022/05/08 04:14:39;;;;;;;5.68;2.28;;;;;;;;;;2105971;28;20048;-48
2022/05/08 04:17:00;;;;;;;5.20;2.40;;;;;;;;;;2105875;28;20382;-47
2022/05/08 04:18:01;;;;;;;5.82;2.35;;;;;;;;;;2105903;28;20069;-51
2022/05/08 04:19:02;;;;;;;3.78;2.40;;;;;;;;;;2099961;28;20117;-49
2022/05/08 04:20:06;;;;;;;4.22;2.08;;;;;;;;;;2097612;28;20128;-50
2022/05/08 04:21:07;;;;;;;4.07;2.05;;;;;;;;;;2097554;28;20415;-48
2022/05/08 04:24:51;;;;;;;6.78;2.80;;;;;;;;;;2079874;28;20060;-48
2022/05/08 04:25:52;;;;;;;7.47;2.75;;;;;;;;;;2097706;28;20131;-48
2022/05/08 04:26:54;;;;;;;5.43;2.10;;;;;;;;;;2097435;28;20551;-49
2022/05/08 04:27:55;;;;;;;4.45;2.72;;;;;;;;;;2097526;28;20135;-47
2022/05/08 04:28:56;;;;;;;2.90;1.73;;;;;;;;;;2097311;28;20107;-48
2022/05/08 04:29:57;;;;;;;5.88;2.65;;;;;;;;;;2097678;28;20088;-49
2022/05/08 04:30:59;;;;;;;4.88;2.30;;;;;;;;;;2097352;28;20044;-49
2022/05/08 04:32:00;;;;;;;3.80;2.17;;;;;;;;;;2097416;28;20059;-47
2022/05/08 04:33:01;;;;;;;5.05;2.72;;;;;;;;;;2097460;28;20486;-49
2022/05/08 04:34:02;;;;;;;5.13;2.30;;;;;;;;;;2097393;28;20068;-48
2022/05/08 04:35:04;;;;;;;5.82;2.58;;;;;;;;;;2097562;28;20051;-49
2022/05/08 04:36:05;;;;;;;5.15;2.03;;;;;;;;;;2097546;28;20131;-47
2022/05/08 04:37:06;;;;;;;3.90;2.20;;;;;;;;;;2097571;28;20051;-50
2022/05/08 04:38:07;;;;;;;3.33;2.17;;;;;;;;;;2097514;28;20037;-47
2022/05/08 04:39:08;;;;;;;6.57;2.42;;;;;;;;;;2097359;28;20045;-49
2022/05/08 04:40:09;;;;;;;5.13;2.60;;;;;;;;;;2097471;28;20121;-50
2022/05/08 04:41:11;;;;;;;8.35;2.70;;;;;;;;;;2097464;28;20115;-48
2022/05/08 04:42:12;;;;;;;4.95;2.30;;;;;;;;;;2097506;28;20090;-48
2022/05/08 04:43:14;;;;;;;6.90;2.35;;;;;;;;;;2097301;28;20545;-50
2022/05/08 04:44:15;;;;;;;4.30;2.33;;;;;;;;;;2097376;28;20059;-48
2022/05/08 04:45:16;;;;;;;5.68;3.00;;;;;;;;;;2100862;28;20035;-47
2022/05/08 04:46:17;;;;;;;3.53;2.33;;;;;;;;;;2105959;28;20123;-49
2022/05/08 04:47:18;;;;;;;4.50;2.58;;;;;;;;;;2105730;28;20131;-48
2022/05/08 04:48:19;;;;;;;4.33;2.50;;;;;;;;;;2105942;28;20051;-50
2022/05/08 04:49:20;;;;;;;3.47;2.15;;;;;;;;;;2105673;28;20131;-50
2022/05/08 04:50:21;;;;;;;5.10;2.80;;;;;;;;;;2105652;28;20040;-47
2022/05/08 04:51:22;;;;;;;5.10;2.58;;;;;;;;;;2105838;28;20048;-48
2022/05/08 04:52:23;;;;;;;6.78;2.58;;;;;;;;;;2105778;28;20123;-48
2022/05/08 04:53:25;;;;;;;5.10;2.20;;;;;;;;;;2106035;28;20113;-49
2022/05/08 04:54:25;;;;;;;6.60;2.90;;;;;;;;;;2105602;28;20044;-47
2022/05/08 04:55:27;;;;;;;6.63;2.67;;;;;;;;;;2105681;28;20108;-47
2022/05/08 04:56:28;;;;;;;7.80;2.80;;;;;;;;;;2105894;28;20048;-60
2022/05/08 04:57:30;;;;;;;3.55;2.30;;;;;;;;;;2105780;28;20048;-59
2022/05/08 04:58:31;;;;;;;;;;;;;;;;;;2106079;28;20044;-60
2022/05/08 04:59:32;;;;;;;4.25;3.05;;;;;;;;;;2105610;28;20254;-60
2022/05/08 05:00:33;;;;;;;4.03;2.47;;;;;;;;;;2105643;28;20054;-60
2022/05/08 05:01:35;;;;;;;4.93;2.33;;;;;;;;;;2105756;28;20143;-60
2022/05/08 05:02:36;;;;;;;;;;;;;;;;;;2106034;28;20508;-60
2022/05/08 05:03:37;;;;;;;5.13;2.65;;;;;;;;;;2105566;28;20007;-60
2022/05/08 05:04:39;;;;;;;5.35;2.65;;;;;;;;;;2105487;28;20100;-60
2022/05/08 05:05:40;;;;;;;5.20;2.85;;;;;;;;;;2105570;28;20093;-59
2022/05/08 05:06:41;;;;;;;5.85;2.60;;;;;;;;;;2105763;28;20056;-60
2022/05/08 05:07:43;;;;;;;3.72;2.03;;;;;;;;;;2105451;28;20480;-59
2022/05/08 05:08:44;;;;;;;3.80;2.58;;;;;;;;;;2105594;28;20131;-59
2022/05/08 05:09:45;;;;;;;7.03;2.53;;;;;;;;;;2105585;28;20127;-59
2022/05/08 05:10:46;;;;;;;5.87;2.50;;;;;;;;;;2105688;28;20051;-59
2022/05/08 05:11:47;;;;;;;5.25;2.85;;;;;;;;;;2105453;28;20509;-59
2022/05/08 05:12:49;;;;;;;4.67;2.77;;;;;;;;;;2105892;28;20047;-47
2022/05/08 05:13:50;;;;;;;7.88;2.67;;;;;;;;;;2105590;28;20131;-48
2022/05/08 05:14:51;;;;;;;4.60;2.80;;;;;;;;;;2105520;28;20455;-47
2022/05/08 05:15:52;;;;;;;5.28;2.67;;;;;;;;;;2105754;28;20280;-47
2022/05/08 05:16:53;;;;;;;7.10;2.50;;;;;;;;;;2105508;28;20044;-49
2022/05/08 05:17:54;;;;;;;7.20;2.85;;;;;;;;;;2105427;28;20059;-48
2022/05/08 05:18:55;;;;;;;4.72;2.50;;;;;;;;;;2100355;28;20075;-49
2022/05/08 05:19:56;;;;;;;5.22;2.55;;;;;;;;;;2097214;28;20123;-49
2022/05/08 05:20:58;;;;;;;7.10;2.38;;;;;;;;;;2097073;28;20048;-48
2022/05/08 05:21:59;;;;;;;4.05;2.78;;;;;;;;;;2097264;28;20124;-46
2022/05/08 05:23:01;;;;;;;5.57;2.77;;;;;;;;;;2097137;28;20525;-48
2022/05/08 05:24:01;;;;;;;3.88;2.22;;;;;;;;;;2097029;28;20072;-50
2022/05/08 05:25:03;;;;;;;5.43;2.70;;;;;;;;;;2097211;28;20056;-48
2022/05/08 05:26:04;;;;;;;5.78;2.28;;;;;;;;;;2097339;28;20124;-60
2022/05/08 05:27:05;;;;;;;5.90;2.70;;;;;;;;;;2097140;28;20510;-60
2022/05/08 05:28:07;;;;;;;4.32;2.55;;;;;;;;;;2096992;28;20377;-59
2022/05/08 05:29:09;;;;;;;4.25;2.70;;;;;;;;;;2097149;28;20040;-61
2022/05/08 05:30:11;;;;;;;4.40;2.37;;;;;;;;;;2097209;28;20214;-60
2022/05/08 05:31:12;;;;;;;5.18;2.70;;;;;;;;;;2097172;28;20127;-60
2022/05/08 05:32:13;;;;;;;6.30;2.80;;;;;;;;;;2097125;28;20070;-61
2022/05/08 05:33:15;;;;;;;8.88;2.67;;;;;;;;;;2097258;28;20052;-60
2022/05/08 05:34:16;;;;;;;3.72;2.42;;;;;;;;;;2097103;28;20068;-60
2022/05/08 05:35:18;;;;;;;4.30;2.50;;;;;;;;;;2097029;28;20488;-60
2022/05/08 05:36:18;;;;;;;3.97;2.35;;;;;;;;;;2097200;28;20082;-61
2022/05/08 05:37:20;;;;;;;5.43;2.50;;;;;;;;;;2097064;28;20067;-60
2022/05/08 05:38:21;;;;;;;5.32;2.60;;;;;;;;;;2097150;28;20041;-60
2022/05/08 05:39:24;;;;;;;4.50;2.40;;;;;;;;;;2097176;28;20041;-61
2022/05/08 05:40:24;;;;;;;5.57;2.60;;;;;;;;;;2097118;28;20055;-60
2022/05/08 05:41:26;;;;;;;5.87;2.90;;;;;;;;;;2099917;28;20099;-61
2022/05/08 05:42:27;;;;;;;5.55;2.80;;;;;;;;;;2105497;28;20093;-60
2022/05/08 05:43:28;;;;;;;4.90;2.60;;;;;;;;;;2105468;28;20470;-61
2022/05/08 05:44:29;;;;;;;;;;;;;;;;;;2105958;28;20131;-61
2022/05/08 05:45:30;;;;;;;3.58;2.10;;;;;;;;;;2105513;28;19988;-60
2022/05/08 05:47:52;;;;;;;6.65;2.70;;;;;;;;;;2105362;28;20048;-60
2022/05/08 05:48:53;;;;;;;4.30;2.42;;;;;;;;;;2105447;28;20159;-60
2022/05/08 05:49:54;;;;;;;5.20;2.63;;;;;;;;;;2105538;28;20040;-61
2022/05/08 05:50:55;;;;;;;5.50;2.72;;;;;;;;;;2105430;28;20474;-60
2022/05/08 05:51:56;;;;;;;4.30;2.63;;;;;;;;;;2105561;28;20101;-60
2022/05/08 05:52:58;;;;;;;9.02;4.35;;;;;;;;;;2105335;28;20607;-60
2022/05/08 05:53:58;;;;;;;8.60;2.53;;;;;;;;;;2105337;28;20480;-60
2022/05/08 05:55:00;;;;;;;3.57;2.37;;;;;;;;;;2105399;28;20070;-60
2022/05/08 05:56:01;;;;;;;4.28;2.50;;;;;;;;;;2105568;28;20188;-60
2022/05/08 05:57:02;;;;;;;5.30;2.67;;;;;;;;;;2105575;28;20044;-60
2022/05/08 05:58:04;;;;;;;5.05;2.80;;;;;;;;;;2105606;28;20123;-60
2022/05/08 05:59:05;;;;;;;5.28;2.38;;;;;;;;;;2105506;28;20475;-60
2022/05/08 06:00:27;;;;;;;4.05;2.10;;;;;;;;;;2105412;28;20048;-61
2022/05/08 06:01:28;;;;;;;5.20;3.10;;;;;;;;;;2105397;28;20058;-60
2022/05/08 06:02:29;;;;;;;6.82;2.85;;;;;;;;;;2105451;28;20065;-60
2022/05/08 06:03:32;;;;;;;3.85;2.53;;;;;;;;;;2105340;28;20127;-60
2022/05/08 06:04:33;;;;;;;3.20;1.52;;;;;;;;;;2105300;28;20510;-60
2022/05/08 06:05:35;;;;;;;4.60;2.05;;;;;;;;;;2105600;28;20197;-60
2022/05/08 06:06:36;;;;;;;5.37;2.00;;;;;;;;;;2105210;28;20127;-60
2022/05/08 06:07:38;;;;;;;5.07;2.17;;;;;;;;;;2105305;28;20642;-60
2022/05/08 06:08:39;;;;;;;3.50;1.95;;;;;;;;;;2105076;28;20044;-60
2022/05/08 06:09:40;;;;;;;2.90;2.30;;;;;;;;;;2105434;28;20482;-60
2022/05/08 06:10:41;;;;;;;8.75;2.70;;;;;;;;;;2105255;28;20363;-60
2022/05/08 06:11:44;;;;;;;3.77;2.43;;;;;;;;;;2105558;28;20082;-50
2022/05/08 06:12:45;;;;;;;4.15;2.03;;;;;;;;;;2105512;28;20131;-61
2022/05/08 06:13:46;;;;;;;4.43;2.53;;;;;;;;;;2105305;28;20048;-60
2022/05/08 06:14:48;;;;;;;3.25;2.08;;;;;;;;;;2105462;28;20516;-60
2022/05/08 06:15:49;;;;;;;;;;;;;;;;;;2105799;28;20050;-60
2022/05/08 06:16:50;;;;;;;5.68;2.50;;;;;;;;;;2106359;28;19920;-60
2022/05/08 06:17:51;;;;;;;3.72;2.50;;;;;;;;;;2106835;28;20050;-60
2022/05/08 06:18:52;;;;;;;3.60;2.58;;;;;;;;;;2101974;28;20044;-60
2022/05/08 06:19:53;;;;;;;7.38;3.22;;;;;;;;;;2098285;28;20140;-60
2022/05/08 06:20:54;;;;;;;4.95;2.58;;;;;;;;;;2098286;28;20362;-60
2022/05/08 06:21:56;;;;;;;5.68;2.45;;;;;;;;;;2098294;28;20146;-60
2022/05/08 06:22:57;;;;;;;6.03;2.33;;;;;;;;;;2098325;28;20131;-60